sensor_id;sensor_type;location;lat;lon;timestamp;P1;durP1;ratioP1;P2;durP2;ratioP2
77332;SDS011;66408;51.326;12.070;2023-01-10T00:01:23;6.80;;;2.65;;
77332;SDS011;66408;51.326;12.070;2023-01-10T00:03:49;6.35;;;3.00;;
77332;SDS011;66408;51.326;12.070;2023-01-10T00:06:16;6.70;;;3.50;;
77332;SDS011;66408;51.326;12.070;2023-01-10T00:08:42;7.60;;;3.75;;
77332;SDS011;66408;51.326;12.070;2023-01-10T00:11:08;12.90;;;4.10;;
77332;SDS011;66408;51.326;12.070;2023-01-10T00:13:54;7.18;;;4.15;;
77332;SDS011;66408;51.326;12.070;2023-01-10T00:16:21;7.15;;;3.67;;
77332;SDS011;66408;51.326;12.070;2023-01-10T00:18:48;6.35;;;3.05;;
77332;SDS011;66408;51.326;12.070;2023-01-10T00:21:15;7.63;;;2.55;;
77332;SDS011;66408;51.326;12.070;2023-01-10T00:23:42;4.57;;;2.15;;
77332;SDS011;66408;51.326;12.070;2023-01-10T00:26:09;9.18;;;2.35;;
77332;SDS011;66408;51.326;12.070;2023-01-10T00:28:36;5.85;;;2.53;;
77332;SDS011;66408;51.326;12.070;2023-01-10T00:31:04;5.22;;;2.30;;
77332;SDS011;66408;51.326;12.070;2023-01-10T00:33:32;4.55;;;2.30;;
77332;SDS011;66408;51.326;12.070;2023-01-10T00:36:00;4.75;;;2.00;;
77332;SDS011;66408;51.326;12.070;2023-01-10T00:38:27;10.75;;;2.58;;
77332;SDS011;66408;51.326;12.070;2023-01-10T00:40:56;6.63;;;2.88;;
77332;SDS011;66408;51.326;12.070;2023-01-10T00:43:22;8.27;;;4.03;;
77332;SDS011;66408;51.326;12.070;2023-01-10T00:46:07;8.02;;;3.40;;
77332;SDS011;66408;51.326;12.070;2023-01-10T00:48:34;7.65;;;3.67;;
77332;SDS011;66408;51.326;12.070;2023-01-10T00:51:01;7.72;;;3.92;;
77332;SDS011;66408;51.326;12.070;2023-01-10T00:53:28;6.38;;;3.03;;
77332;SDS011;66408;51.326;12.070;2023-01-10T00:55:55;5.68;;;2.70;;
77332;SDS011;66408;51.326;12.070;2023-01-10T00:58:21;6.57;;;2.72;;
77332;SDS011;66408;51.326;12.070;2023-01-10T01:00:48;6.38;;;2.65;;
77332;SDS011;66408;51.326;12.070;2023-01-10T01:03:16;5.43;;;2.60;;
77332;SDS011;66408;51.326;12.070;2023-01-10T01:08:12;5.75;;;2.50;;
77332;SDS011;66408;51.326;12.070;2023-01-10T01:10:40;6.22;;;2.85;;
77332;SDS011;66408;51.326;12.070;2023-01-10T01:13:17;7.97;;;3.50;;
77332;SDS011;66408;51.326;12.070;2023-01-10T01:15:45;6.35;;;3.00;;
77332;SDS011;66408;51.326;12.070;2023-01-10T01:18:13;11.80;;;4.78;;
77332;SDS011;66408;51.326;12.070;2023-01-10T01:20:43;10.77;;;5.45;;
77332;SDS011;66408;51.326;12.070;2023-01-10T01:23:11;12.23;;;6.15;;
77332;SDS011;66408;51.326;12.070;2023-01-10T01:25:38;12.63;;;6.05;;
77332;SDS011;66408;51.326;12.070;2023-01-10T01:28:04;11.82;;;5.40;;
77332;SDS011;66408;51.326;12.070;2023-01-10T01:30:31;9.48;;;4.75;;
77332;SDS011;66408;51.326;12.070;2023-01-10T01:32:57;7.85;;;3.28;;
77332;SDS011;66408;51.326;12.070;2023-01-10T01:35:24;6.53;;;3.10;;
77332;SDS011;66408;51.326;12.070;2023-01-10T01:37:50;8.90;;;3.90;;
77332;SDS011;66408;51.326;12.070;2023-01-10T01:40:18;14.35;;;6.03;;
77332;SDS011;66408;51.326;12.070;2023-01-10T01:42:46;20.55;;;10.32;;
77332;SDS011;66408;51.326;12.070;2023-01-10T01:50:17;14.57;;;6.40;;
77332;SDS011;66408;51.326;12.070;2023-01-10T01:52:48;10.23;;;5.10;;
77332;SDS011;66408;51.326;12.070;2023-01-10T01:55:18;12.80;;;4.82;;
77332;SDS011;66408;51.326;12.070;2023-01-10T01:57:45;9.10;;;3.53;;
77332;SDS011;66408;51.326;12.070;2023-01-10T02:00:13;9.88;;;4.18;;
77332;SDS011;66408;51.326;12.070;2023-01-10T02:02:42;9.02;;;3.38;;
77332;SDS011;66408;51.326;12.070;2023-01-10T02:05:27;7.82;;;3.97;;
77332;SDS011;66408;51.326;12.070;2023-01-10T02:07:57;8.98;;;3.63;;
77332;SDS011;66408;51.326;12.070;2023-01-10T02:10:41;6.97;;;3.03;;
77332;SDS011;66408;51.326;12.070;2023-01-10T02:13:14;6.38;;;2.97;;
77332;SDS011;66408;51.326;12.070;2023-01-10T02:15:45;6.07;;;2.30;;
77332;SDS011;66408;51.326;12.070;2023-01-10T02:18:11;5.82;;;3.40;;
77332;SDS011;66408;51.326;12.070;2023-01-10T02:34:32;4.55;;;2.47;;
77332;SDS011;66408;51.326;12.070;2023-01-10T02:42:22;9.68;;;3.08;;
77332;SDS011;66408;51.326;12.070;2023-01-10T02:44:59;7.22;;;3.08;;
77332;SDS011;66408;51.326;12.070;2023-01-10T02:47:36;7.70;;;3.50;;
77332;SDS011;66408;51.326;12.070;2023-01-10T02:52:58;6.85;;;2.60;;
77332;SDS011;66408;51.326;12.070;2023-01-10T03:03:38;4.47;;;2.40;;
77332;SDS011;66408;51.326;12.070;2023-01-10T03:08:57;5.63;;;2.70;;
77332;SDS011;66408;51.326;12.070;2023-01-10T03:11:30;6.10;;;3.13;;
77332;SDS011;66408;51.326;12.070;2023-01-10T03:14:17;6.35;;;2.55;;
77332;SDS011;66408;51.326;12.070;2023-01-10T03:16:54;5.13;;;2.60;;
77332;SDS011;66408;51.326;12.070;2023-01-10T03:19:26;6.05;;;3.03;;
77332;SDS011;66408;51.326;12.070;2023-01-10T03:21:56;7.05;;;3.47;;
77332;SDS011;66408;51.326;12.070;2023-01-10T03:24:38;9.85;;;4.35;;
77332;SDS011;66408;51.326;12.070;2023-01-10T03:27:15;13.20;;;4.35;;
77332;SDS011;66408;51.326;12.070;2023-01-10T03:32:43;8.13;;;3.90;;
77332;SDS011;66408;51.326;12.070;2023-01-10T03:35:10;7.85;;;3.60;;
77332;SDS011;66408;51.326;12.070;2023-01-10T03:43:25;8.15;;;3.25;;
77332;SDS011;66408;51.326;12.070;2023-01-10T03:46:25;7.97;;;3.38;;
77332;SDS011;66408;51.326;12.070;2023-01-10T03:48:58;7.22;;;2.97;;
77332;SDS011;66408;51.326;12.070;2023-01-10T03:51:28;8.13;;;3.55;;
77332;SDS011;66408;51.326;12.070;2023-01-10T03:53:58;8.98;;;4.05;;
77332;SDS011;66408;51.326;12.070;2023-01-10T03:56:25;8.77;;;3.78;;
77332;SDS011;66408;51.326;12.070;2023-01-10T03:58:52;9.90;;;4.70;;
77332;SDS011;66408;51.326;12.070;2023-01-10T04:01:18;15.57;;;4.97;;
77332;SDS011;66408;51.326;12.070;2023-01-10T04:03:45;8.82;;;4.38;;
77332;SDS011;66408;51.326;12.070;2023-01-10T04:06:11;9.10;;;4.72;;
77332;SDS011;66408;51.326;12.070;2023-01-10T04:08:38;9.77;;;5.60;;
77332;SDS011;66408;51.326;12.070;2023-01-10T04:11:04;9.52;;;5.18;;
77332;SDS011;66408;51.326;12.070;2023-01-10T04:13:31;11.63;;;5.90;;
77332;SDS011;66408;51.326;12.070;2023-01-10T04:15:58;11.23;;;5.80;;
77332;SDS011;66408;51.326;12.070;2023-01-10T04:18:25;11.13;;;5.95;;
77332;SDS011;66408;51.326;12.070;2023-01-10T04:20:52;11.15;;;4.82;;
77332;SDS011;66408;51.326;12.070;2023-01-10T04:23:18;12.82;;;6.43;;
77332;SDS011;66408;51.326;12.070;2023-01-10T04:25:47;18.70;;;8.07;;
77332;SDS011;66408;51.326;12.070;2023-01-10T04:28:14;13.23;;;5.60;;
77332;SDS011;66408;51.326;12.070;2023-01-10T04:30:40;9.65;;;5.05;;
77332;SDS011;66408;51.326;12.070;2023-01-10T04:33:07;11.35;;;5.20;;
77332;SDS011;66408;51.326;12.070;2023-01-10T04:35:35;9.63;;;3.88;;
77332;SDS011;66408;51.326;12.070;2023-01-10T04:38:02;6.60;;;3.40;;
77332;SDS011;66408;51.326;12.070;2023-01-10T04:40:28;7.82;;;3.53;;
77332;SDS011;66408;51.326;12.070;2023-01-10T04:42:54;7.22;;;3.55;;
77332;SDS011;66408;51.326;12.070;2023-01-10T04:45:21;7.68;;;3.25;;
77332;SDS011;66408;51.326;12.070;2023-01-10T04:47:48;8.40;;;3.72;;
77332;SDS011;66408;51.326;12.070;2023-01-10T04:50:16;8.43;;;3.20;;
77332;SDS011;66408;51.326;12.070;2023-01-10T04:52:42;5.28;;;3.00;;
77332;SDS011;66408;51.326;12.070;2023-01-10T04:55:09;8.00;;;3.58;;
77332;SDS011;66408;51.326;12.070;2023-01-10T04:57:35;7.97;;;3.63;;
77332;SDS011;66408;51.326;12.070;2023-01-10T05:00:02;8.95;;;3.30;;
77332;SDS011;66408;51.326;12.070;2023-01-10T05:02:29;7.50;;;2.40;;
77332;SDS011;66408;51.326;12.070;2023-01-10T05:04:55;6.88;;;2.50;;
77332;SDS011;66408;51.326;12.070;2023-01-10T05:07:22;8.68;;;2.88;;
77332;SDS011;66408;51.326;12.070;2023-01-10T05:09:48;9.35;;;2.60;;
77332;SDS011;66408;51.326;12.070;2023-01-10T05:12:15;7.30;;;2.80;;
77332;SDS011;66408;51.326;12.070;2023-01-10T05:14:41;8.00;;;3.58;;
77332;SDS011;66408;51.326;12.070;2023-01-10T05:17:08;7.10;;;3.08;;
77332;SDS011;66408;51.326;12.070;2023-01-10T05:19:34;6.38;;;3.20;;
77332;SDS011;66408;51.326;12.070;2023-01-10T05:22:01;7.53;;;3.80;;
77332;SDS011;66408;51.326;12.070;2023-01-10T05:24:27;11.02;;;4.30;;
77332;SDS011;66408;51.326;12.070;2023-01-10T05:26:54;8.30;;;3.83;;
77332;SDS011;66408;51.326;12.070;2023-01-10T05:29:20;8.48;;;4.85;;
77332;SDS011;66408;51.326;12.070;2023-01-10T05:31:49;9.63;;;5.97;;
77332;SDS011;66408;51.326;12.070;2023-01-10T05:34:16;10.32;;;5.53;;
77332;SDS011;66408;51.326;12.070;2023-01-10T05:36:42;11.77;;;6.10;;
77332;SDS011;66408;51.326;12.070;2023-01-10T05:39:09;13.70;;;5.78;;
77332;SDS011;66408;51.326;12.070;2023-01-10T05:41:35;10.20;;;4.55;;
77332;SDS011;66408;51.326;12.070;2023-01-10T05:44:02;7.53;;;3.92;;
77332;SDS011;66408;51.326;12.070;2023-01-10T05:46:29;7.72;;;4.32;;
77332;SDS011;66408;51.326;12.070;2023-01-10T05:48:55;7.72;;;3.42;;
77332;SDS011;66408;51.326;12.070;2023-01-10T05:51:22;7.07;;;3.83;;
77332;SDS011;66408;51.326;12.070;2023-01-10T05:53:48;7.30;;;3.30;;
77332;SDS011;66408;51.326;12.070;2023-01-10T05:58:44;7.78;;;3.25;;
77332;SDS011;66408;51.326;12.070;2023-01-10T06:01:14;7.15;;;2.88;;
77332;SDS011;66408;51.326;12.070;2023-01-10T06:03:41;5.28;;;2.20;;
77332;SDS011;66408;51.326;12.070;2023-01-10T06:06:08;3.85;;;2.03;;
77332;SDS011;66408;51.326;12.070;2023-01-10T06:08:34;3.80;;;1.80;;
77332;SDS011;66408;51.326;12.070;2023-01-10T06:11:06;5.28;;;1.90;;
77332;SDS011;66408;51.326;12.070;2023-01-10T06:13:33;7.00;;;2.10;;
77332;SDS011;66408;51.326;12.070;2023-01-10T06:15:59;4.00;;;1.77;;
77332;SDS011;66408;51.326;12.070;2023-01-10T06:18:26;6.10;;;1.50;;
77332;SDS011;66408;51.326;12.070;2023-01-10T06:20:53;5.82;;;1.85;;
77332;SDS011;66408;51.326;12.070;2023-01-10T06:23:19;3.72;;;1.13;;
77332;SDS011;66408;51.326;12.070;2023-01-10T06:25:46;4.28;;;1.27;;
77332;SDS011;66408;51.326;12.070;2023-01-10T06:28:13;5.72;;;1.40;;
77332;SDS011;66408;51.326;12.070;2023-01-10T06:30:40;2.90;;;1.10;;
77332;SDS011;66408;51.326;12.070;2023-01-10T06:33:08;3.97;;;1.20;;
77332;SDS011;66408;51.326;12.070;2023-01-10T06:35:36;1.77;;;1.05;;
77332;SDS011;66408;51.326;12.070;2023-01-10T06:38:02;4.95;;;1.17;;
77332;SDS011;66408;51.326;12.070;2023-01-10T06:40:29;3.65;;;1.02;;
77332;SDS011;66408;51.326;12.070;2023-01-10T06:42:56;3.30;;;1.38;;
77332;SDS011;66408;51.326;12.070;2023-01-10T06:45:22;3.65;;;1.83;;
77332;SDS011;66408;51.326;12.070;2023-01-10T06:47:49;4.40;;;1.85;;
77332;SDS011;66408;51.326;12.070;2023-01-10T06:50:15;6.32;;;2.15;;
77332;SDS011;66408;51.326;12.070;2023-01-10T06:52:42;8.85;;;2.35;;
77332;SDS011;66408;51.326;12.070;2023-01-10T06:55:08;8.20;;;1.77;;
77332;SDS011;66408;51.326;12.070;2023-01-10T06:57:35;5.15;;;1.58;;
77332;SDS011;66408;51.326;12.070;2023-01-10T07:00:04;5.07;;;1.52;;
77332;SDS011;66408;51.326;12.070;2023-01-10T07:02:32;3.40;;;1.35;;
77332;SDS011;66408;51.326;12.070;2023-01-10T07:04:59;4.13;;;1.50;;
77332;SDS011;66408;51.326;12.070;2023-01-10T07:07:25;4.00;;;1.40;;
77332;SDS011;66408;51.326;12.070;2023-01-10T07:09:52;3.08;;;1.75;;
77332;SDS011;66408;51.326;12.070;2023-01-10T07:12:18;5.22;;;2.08;;
77332;SDS011;66408;51.326;12.070;2023-01-10T07:14:45;8.00;;;3.97;;
77332;SDS011;66408;51.326;12.070;2023-01-10T07:17:11;9.43;;;3.47;;
77332;SDS011;66408;51.326;12.070;2023-01-10T07:19:38;9.63;;;3.78;;
77332;SDS011;66408;51.326;12.070;2023-01-10T07:22:04;8.68;;;4.25;;
77332;SDS011;66408;51.326;12.070;2023-01-10T07:24:31;7.80;;;3.35;;
77332;SDS011;66408;51.326;12.070;2023-01-10T07:26:57;5.82;;;3.15;;
77332;SDS011;66408;51.326;12.070;2023-01-10T07:29:24;6.97;;;3.38;;
77332;SDS011;66408;51.326;12.070;2023-01-10T07:31:50;6.85;;;2.83;;
77332;SDS011;66408;51.326;12.070;2023-01-10T07:34:17;7.50;;;2.88;;
77332;SDS011;66408;51.326;12.070;2023-01-10T07:36:43;5.97;;;2.28;;
77332;SDS011;66408;51.326;12.070;2023-01-10T07:39:10;5.80;;;2.72;;
77332;SDS011;66408;51.326;12.070;2023-01-10T07:41:36;7.18;;;2.25;;
77332;SDS011;66408;51.326;12.070;2023-01-10T07:44:04;7.30;;;2.45;;
77332;SDS011;66408;51.326;12.070;2023-01-10T07:46:30;7.25;;;2.38;;
77332;SDS011;66408;51.326;12.070;2023-01-10T07:48:57;4.40;;;1.83;;
77332;SDS011;66408;51.326;12.070;2023-01-10T07:51:23;3.20;;;1.75;;
77332;SDS011;66408;51.326;12.070;2023-01-10T07:53:50;4.95;;;1.58;;
77332;SDS011;66408;51.326;12.070;2023-01-10T07:56:16;4.28;;;1.75;;
77332;SDS011;66408;51.326;12.070;2023-01-10T07:58:43;6.10;;;1.90;;
77332;SDS011;66408;51.326;12.070;2023-01-10T08:01:11;6.35;;;2.10;;
77332;SDS011;66408;51.326;12.070;2023-01-10T08:03:38;8.27;;;1.92;;
77332;SDS011;66408;51.326;12.070;2023-01-10T08:06:05;5.18;;;1.90;;
77332;SDS011;66408;51.326;12.070;2023-01-10T08:08:35;5.40;;;1.80;;
77332;SDS011;66408;51.326;12.070;2023-01-10T08:11:02;3.00;;;1.75;;
77332;SDS011;66408;51.326;12.070;2023-01-10T08:13:30;2.60;;;1.35;;
77332;SDS011;66408;51.326;12.070;2023-01-10T08:15:57;4.95;;;1.60;;
77332;SDS011;66408;51.326;12.070;2023-01-10T08:18:23;3.25;;;1.42;;
77332;SDS011;66408;51.326;12.070;2023-01-10T08:20:51;3.20;;;1.35;;
77332;SDS011;66408;51.326;12.070;2023-01-10T08:23:19;3.83;;;2.00;;
77332;SDS011;66408;51.326;12.070;2023-01-10T08:25:46;8.23;;;1.92;;
77332;SDS011;66408;51.326;12.070;2023-01-10T08:28:14;5.35;;;1.95;;
77332;SDS011;66408;51.326;12.070;2023-01-10T08:30:40;5.22;;;2.00;;
77332;SDS011;66408;51.326;12.070;2023-01-10T08:33:08;4.90;;;2.20;;
77332;SDS011;66408;51.326;12.070;2023-01-10T08:35:39;6.45;;;2.78;;
77332;SDS011;66408;51.326;12.070;2023-01-10T08:38:08;5.18;;;2.10;;
77332;SDS011;66408;51.326;12.070;2023-01-10T08:40:35;11.93;;;3.15;;
77332;SDS011;66408;51.326;12.070;2023-01-10T08:43:06;8.60;;;2.60;;
77332;SDS011;66408;51.326;12.070;2023-01-10T08:45:36;7.63;;;2.50;;
77332;SDS011;66408;51.326;12.070;2023-01-10T08:48:03;6.07;;;2.30;;
77332;SDS011;66408;51.326;12.070;2023-01-10T08:50:31;6.25;;;1.77;;
77332;SDS011;66408;51.326;12.070;2023-01-10T08:52:58;7.95;;;2.75;;
77332;SDS011;66408;51.326;12.070;2023-01-10T08:55:25;7.18;;;2.67;;
77332;SDS011;66408;51.326;12.070;2023-01-10T08:57:53;4.47;;;2.40;;
77332;SDS011;66408;51.326;12.070;2023-01-10T09:00:20;4.95;;;2.10;;
77332;SDS011;66408;51.326;12.070;2023-01-10T09:02:47;4.60;;;2.35;;
77332;SDS011;66408;51.326;12.070;2023-01-10T09:05:14;8.80;;;2.67;;
77332;SDS011;66408;51.326;12.070;2023-01-10T09:07:54;6.30;;;2.45;;
77332;SDS011;66408;51.326;12.070;2023-01-10T09:10:24;7.97;;;2.03;;
77332;SDS011;66408;51.326;12.070;2023-01-10T09:12:50;5.53;;;2.13;;
77332;SDS011;66408;51.326;12.070;2023-01-10T09:15:20;7.03;;;1.98;;
77332;SDS011;66408;51.326;12.070;2023-01-10T09:18:01;6.68;;;1.80;;
77332;SDS011;66408;51.326;12.070;2023-01-10T09:20:30;4.47;;;1.80;;
77332;SDS011;66408;51.326;12.070;2023-01-10T09:23:03;8.43;;;2.65;;
77332;SDS011;66408;51.326;12.070;2023-01-10T09:25:31;5.22;;;1.60;;
77332;SDS011;66408;51.326;12.070;2023-01-10T09:27:59;4.38;;;1.63;;
77332;SDS011;66408;51.326;12.070;2023-01-10T09:30:28;5.43;;;1.70;;
77332;SDS011;66408;51.326;12.070;2023-01-10T09:32:55;6.82;;;1.73;;
77332;SDS011;66408;51.326;12.070;2023-01-10T09:35:23;7.13;;;1.77;;
77332;SDS011;66408;51.326;12.070;2023-01-10T09:37:55;4.15;;;1.83;;
77332;SDS011;66408;51.326;12.070;2023-01-10T09:40:29;7.25;;;1.55;;
77332;SDS011;66408;51.326;12.070;2023-01-10T09:48:30;4.68;;;1.42;;
77332;SDS011;66408;51.326;12.070;2023-01-10T09:51:49;3.80;;;1.70;;
77332;SDS011;66408;51.326;12.070;2023-01-10T09:54:14;4.53;;;1.63;;
77332;SDS011;66408;51.326;12.070;2023-01-10T09:56:45;3.38;;;1.48;;
77332;SDS011;66408;51.326;12.070;2023-01-10T09:59:17;4.35;;;1.48;;
77332;SDS011;66408;51.326;12.070;2023-01-10T10:01:46;4.00;;;1.80;;
77332;SDS011;66408;51.326;12.070;2023-01-10T10:04:21;5.32;;;1.58;;
77332;SDS011;66408;51.326;12.070;2023-01-10T10:06:53;4.43;;;1.55;;
77332;SDS011;66408;51.326;12.070;2023-01-10T10:09:23;3.40;;;1.70;;
77332;SDS011;66408;51.326;12.070;2023-01-10T10:12:03;4.35;;;1.67;;
77332;SDS011;66408;51.326;12.070;2023-01-10T10:14:45;7.32;;;1.77;;
77332;SDS011;66408;51.326;12.070;2023-01-10T10:17:36;5.45;;;1.90;;
77332;SDS011;66408;51.326;12.070;2023-01-10T10:20:12;5.15;;;1.70;;
77332;SDS011;66408;51.326;12.070;2023-01-10T10:34:39;6.15;;;2.00;;
77332;SDS011;66408;51.326;12.070;2023-01-10T10:37:55;4.70;;;1.75;;
77332;SDS011;66408;51.326;12.070;2023-01-10T10:40:18;8.90;;;2.10;;
77332;SDS011;66408;51.326;12.070;2023-01-10T10:42:48;5.55;;;1.83;;
77332;SDS011;66408;51.326;12.070;2023-01-10T10:45:35;4.47;;;1.50;;
77332;SDS011;66408;51.326;12.070;2023-01-10T10:48:20;2.50;;;1.45;;
77332;SDS011;66408;51.326;12.070;2023-01-10T10:50:53;3.53;;;1.73;;
77332;SDS011;66408;51.326;12.070;2023-01-10T10:53:25;3.97;;;1.48;;
77332;SDS011;66408;51.326;12.070;2023-01-10T10:55:52;3.30;;;1.20;;
77332;SDS011;66408;51.326;12.070;2023-01-10T10:58:18;4.63;;;1.90;;
77332;SDS011;66408;51.326;12.070;2023-01-10T11:00:45;5.38;;;2.00;;
77332;SDS011;66408;51.326;12.070;2023-01-10T11:03:24;4.88;;;1.60;;
77332;SDS011;66408;51.326;12.070;2023-01-10T11:05:56;3.17;;;1.30;;
77332;SDS011;66408;51.326;12.070;2023-01-10T11:08:25;3.20;;;1.67;;
77332;SDS011;66408;51.326;12.070;2023-01-10T11:10:56;6.00;;;1.65;;
77332;SDS011;66408;51.326;12.070;2023-01-10T11:16:00;4.55;;;1.38;;
77332;SDS011;66408;51.326;12.070;2023-01-10T11:18:29;4.55;;;1.80;;
77332;SDS011;66408;51.326;12.070;2023-01-10T11:26:08;3.90;;;1.40;;
77332;SDS011;66408;51.326;12.070;2023-01-10T11:28:50;3.63;;;1.77;;
77332;SDS011;66408;51.326;12.070;2023-01-10T11:31:27;6.57;;;2.05;;
77332;SDS011;66408;51.326;12.070;2023-01-10T11:33:54;6.30;;;2.00;;
77332;SDS011;66408;51.326;12.070;2023-01-10T11:36:22;3.90;;;1.40;;
77332;SDS011;66408;51.326;12.070;2023-01-10T11:39:02;3.83;;;1.52;;
77332;SDS011;66408;51.326;12.070;2023-01-10T11:41:29;4.07;;;1.40;;
77332;SDS011;66408;51.326;12.070;2023-01-10T11:44:14;5.68;;;1.70;;
77332;SDS011;66408;51.326;12.070;2023-01-10T11:46:42;4.68;;;1.67;;
77332;SDS011;66408;51.326;12.070;2023-01-10T11:49:11;5.38;;;1.70;;
77332;SDS011;66408;51.326;12.070;2023-01-10T11:51:48;5.82;;;1.50;;
77332;SDS011;66408;51.326;12.070;2023-01-10T11:54:21;5.25;;;1.45;;
77332;SDS011;66408;51.326;12.070;2023-01-10T11:57:00;5.40;;;1.65;;
77332;SDS011;66408;51.326;12.070;2023-01-10T11:59:32;3.38;;;1.85;;
77332;SDS011;66408;51.326;12.070;2023-01-10T12:02:03;5.15;;;1.40;;
77332;SDS011;66408;51.326;12.070;2023-01-10T12:04:48;4.22;;;1.55;;
77332;SDS011;66408;51.326;12.070;2023-01-10T12:07:17;6.03;;;1.52;;
77332;SDS011;66408;51.326;12.070;2023-01-10T12:09:57;4.20;;;1.30;;
77332;SDS011;66408;51.326;12.070;2023-01-10T12:12:29;4.50;;;1.80;;
77332;SDS011;66408;51.326;12.070;2023-01-10T12:14:57;3.13;;;1.40;;
77332;SDS011;66408;51.326;12.070;2023-01-10T12:19:58;4.25;;;1.70;;
77332;SDS011;66408;51.326;12.070;2023-01-10T12:22:30;5.53;;;1.63;;
77332;SDS011;66408;51.326;12.070;2023-01-10T12:24:59;6.18;;;2.10;;
77332;SDS011;66408;51.326;12.070;2023-01-10T12:27:31;5.80;;;1.80;;
77332;SDS011;66408;51.326;12.070;2023-01-10T12:32:29;5.78;;;1.80;;
77332;SDS011;66408;51.326;12.070;2023-01-10T12:35:09;4.07;;;1.90;;
77332;SDS011;66408;51.326;12.070;2023-01-10T12:37:45;4.80;;;1.90;;
77332;SDS011;66408;51.326;12.070;2023-01-10T12:40:30;5.90;;;1.95;;
77332;SDS011;66408;51.326;12.070;2023-01-10T12:43:20;4.25;;;1.70;;
77332;SDS011;66408;51.326;12.070;2023-01-10T12:49:30;5.57;;;2.13;;
77332;SDS011;66408;51.326;12.070;2023-01-10T12:52:02;8.48;;;2.00;;
77332;SDS011;66408;51.326;12.070;2023-01-10T12:54:35;7.15;;;2.15;;
77332;SDS011;66408;51.326;12.070;2023-01-10T12:57:04;4.32;;;2.22;;
77332;SDS011;66408;51.326;12.070;2023-01-10T12:59:41;6.70;;;1.83;;
77332;SDS011;66408;51.326;12.070;2023-01-10T13:02:13;5.30;;;1.73;;
77332;SDS011;66408;51.326;12.070;2023-01-10T13:04:47;9.30;;;2.58;;
77332;SDS011;66408;51.326;12.070;2023-01-10T13:07:18;6.72;;;2.47;;
77332;SDS011;66408;51.326;12.070;2023-01-10T13:09:47;4.25;;;2.05;;
77332;SDS011;66408;51.326;12.070;2023-01-10T13:12:22;3.85;;;1.98;;
77332;SDS011;66408;51.326;12.070;2023-01-10T13:17:52;4.97;;;2.08;;
77332;SDS011;66408;51.326;12.070;2023-01-10T13:20:26;4.78;;;1.85;;
77332;SDS011;66408;51.326;12.070;2023-01-10T13:22:58;3.95;;;1.90;;
77332;SDS011;66408;51.326;12.070;2023-01-10T13:27:58;6.22;;;1.95;;
77332;SDS011;66408;51.326;12.070;2023-01-10T13:30:43;4.15;;;2.03;;
77332;SDS011;66408;51.326;12.070;2023-01-10T13:35:47;5.70;;;2.20;;
77332;SDS011;66408;51.326;12.070;2023-01-10T13:38:24;10.68;;;2.20;;
77332;SDS011;66408;51.326;12.070;2023-01-10T13:40:58;7.07;;;2.97;;
77332;SDS011;66408;51.326;12.070;2023-01-10T13:43:57;6.72;;;2.78;;
77332;SDS011;66408;51.326;12.070;2023-01-10T13:51:26;5.43;;;2.67;;
77332;SDS011;66408;51.326;12.070;2023-01-10T13:53:55;6.93;;;2.58;;
77332;SDS011;66408;51.326;12.070;2023-01-10T13:59:00;7.60;;;2.10;;
77332;SDS011;66408;51.326;12.070;2023-01-10T14:01:43;6.38;;;2.00;;
77332;SDS011;66408;51.326;12.070;2023-01-10T14:04:38;3.28;;;1.80;;
77332;SDS011;66408;51.326;12.070;2023-01-10T14:07:13;6.13;;;1.80;;
77332;SDS011;66408;51.326;12.070;2023-01-10T14:09:47;6.25;;;2.30;;
77332;SDS011;66408;51.326;12.070;2023-01-10T14:14:52;4.57;;;1.58;;
77332;SDS011;66408;51.326;12.070;2023-01-10T14:17:24;4.63;;;1.58;;
77332;SDS011;66408;51.326;12.070;2023-01-10T14:20:04;3.85;;;1.80;;
77332;SDS011;66408;51.326;12.070;2023-01-10T14:22:40;4.18;;;1.30;;
77332;SDS011;66408;51.326;12.070;2023-01-10T14:25:22;2.53;;;1.10;;
77332;SDS011;66408;51.326;12.070;2023-01-10T14:27:52;4.80;;;1.52;;
77332;SDS011;66408;51.326;12.070;2023-01-10T14:30:28;5.57;;;2.03;;
77332;SDS011;66408;51.326;12.070;2023-01-10T14:33:18;5.30;;;1.75;;
77332;SDS011;66408;51.326;12.070;2023-01-10T14:35:48;4.93;;;1.48;;
77332;SDS011;66408;51.326;12.070;2023-01-10T14:38:28;6.07;;;1.92;;
77332;SDS011;66408;51.326;12.070;2023-01-10T14:41:03;3.65;;;1.58;;
77332;SDS011;66408;51.326;12.070;2023-01-10T14:43:37;4.00;;;1.90;;
77332;SDS011;66408;51.326;12.070;2023-01-10T14:46:13;5.28;;;1.42;;
77332;SDS011;66408;51.326;12.070;2023-01-10T14:48:46;9.32;;;2.10;;
77332;SDS011;66408;51.326;12.070;2023-01-10T14:51:29;5.28;;;1.50;;
77332;SDS011;66408;51.326;12.070;2023-01-10T14:54:08;4.93;;;1.67;;
77332;SDS011;66408;51.326;12.070;2023-01-10T14:56:41;3.92;;;1.55;;
77332;SDS011;66408;51.326;12.070;2023-01-10T15:01:52;7.47;;;1.55;;
77332;SDS011;66408;51.326;12.070;2023-01-10T15:04:22;3.95;;;1.42;;
77332;SDS011;66408;51.326;12.070;2023-01-10T15:06:53;4.45;;;1.40;;
77332;SDS011;66408;51.326;12.070;2023-01-10T15:09:25;4.25;;;1.40;;
77332;SDS011;66408;51.326;12.070;2023-01-10T15:11:56;3.10;;;1.80;;
77332;SDS011;66408;51.326;12.070;2023-01-10T15:14:26;5.10;;;1.27;;
77332;SDS011;66408;51.326;12.070;2023-01-10T15:16:58;3.08;;;1.30;;
77332;SDS011;66408;51.326;12.070;2023-01-10T15:19:34;5.93;;;1.40;;
77332;SDS011;66408;51.326;12.070;2023-01-10T15:22:14;6.32;;;1.20;;
77332;SDS011;66408;51.326;12.070;2023-01-10T15:24:43;5.30;;;1.58;;
77332;SDS011;66408;51.326;12.070;2023-01-10T15:27:23;5.80;;;1.40;;
77332;SDS011;66408;51.326;12.070;2023-01-10T15:29:49;7.65;;;1.77;;
77332;SDS011;66408;51.326;12.070;2023-01-10T15:32:23;3.63;;;1.02;;
77332;SDS011;66408;51.326;12.070;2023-01-10T15:34:54;2.90;;;1.50;;
77332;SDS011;66408;51.326;12.070;2023-01-10T15:37:24;4.53;;;1.35;;
77332;SDS011;66408;51.326;12.070;2023-01-10T15:39:59;5.75;;;1.40;;
77332;SDS011;66408;51.326;12.070;2023-01-10T15:42:27;2.97;;;1.20;;
77332;SDS011;66408;51.326;12.070;2023-01-10T15:44:53;5.03;;;0.97;;
77332;SDS011;66408;51.326;12.070;2023-01-10T15:48:04;4.72;;;1.05;;
77332;SDS011;66408;51.326;12.070;2023-01-10T15:50:26;3.28;;;1.00;;
77332;SDS011;66408;51.326;12.070;2023-01-10T15:53:09;4.75;;;1.27;;
77332;SDS011;66408;51.326;12.070;2023-01-10T15:55:51;3.78;;;1.27;;
77332;SDS011;66408;51.326;12.070;2023-01-10T16:00:50;4.05;;;1.63;;
77332;SDS011;66408;51.326;12.070;2023-01-10T16:03:22;3.13;;;1.40;;
77332;SDS011;66408;51.326;12.070;2023-01-10T16:05:53;3.08;;;1.40;;
77332;SDS011;66408;51.326;12.070;2023-01-10T16:08:24;4.68;;;1.15;;
77332;SDS011;66408;51.326;12.070;2023-01-10T16:13:23;5.32;;;1.15;;
77332;SDS011;66408;51.326;12.070;2023-01-10T16:15:54;4.65;;;1.20;;
77332;SDS011;66408;51.326;12.070;2023-01-10T16:18:21;5.15;;;1.58;;
77332;SDS011;66408;51.326;12.070;2023-01-10T16:20:49;6.90;;;1.13;;
77332;SDS011;66408;51.326;12.070;2023-01-10T16:23:27;3.85;;;1.30;;
77332;SDS011;66408;51.326;12.070;2023-01-10T16:26:01;3.78;;;0.95;;
77332;SDS011;66408;51.326;12.070;2023-01-10T16:28:30;2.85;;;1.00;;
77332;SDS011;66408;51.326;12.070;2023-01-10T16:31:01;5.82;;;1.67;;
77332;SDS011;66408;51.326;12.070;2023-01-10T16:33:31;4.53;;;1.10;;
77332;SDS011;66408;51.326;12.070;2023-01-10T16:35:58;4.07;;;1.73;;
77332;SDS011;66408;51.326;12.070;2023-01-10T16:38:26;6.88;;;2.35;;
77332;SDS011;66408;51.326;12.070;2023-01-10T16:40:58;7.68;;;2.03;;
77332;SDS011;66408;51.326;12.070;2023-01-10T16:43:26;5.55;;;2.38;;
77332;SDS011;66408;51.326;12.070;2023-01-10T16:45:57;4.10;;;1.83;;